Time;durP1;ratioP1;P1;durP2;ratioP2;P2;SDS_P1;SDS_P2;PMS_P1;PMS_P2;Temp;Humidity;BMP_temperature;BMP_pressure;BME280_temperature;BME280_humidity;BME280_pressure;Samples;Min_cycle;Max_cycle;Signal;HPM_P1;HPM_P2
2022/11/08 00:02:00;;;;;;;;;;;;;;;14.26;69.49;101798.63;4926049;28;103465;-53
2022/11/08 00:04:29;;;;;;;;;;;;;;;14.27;69.68;101800.28;4923683;28;103954;-53
2022/11/08 00:15:11;;;;;;;;;;;;;;;14.28;69.55;101803.84;4928604;28;103862;-53
2022/11/08 00:17:38;;;;;;;;;;;;;;;14.27;69.41;101802.19;4930607;28;102227;-53
2022/11/08 00:20:07;;;;;;;;;;;;;;;14.28;69.59;101803.84;4924726;28;102326;-54
2022/11/08 00:22:34;;;;;;;;;;;;;;;14.28;69.84;101801.09;4923504;28;102294;-53
2022/11/08 00:25:00;;;;;;;;;;;;;;;14.28;69.51;101807.41;4926228;28;104056;-53
2022/11/08 00:27:27;;;;;;;;;;;;;;;14.28;69.43;101803.84;4927933;28;102346;-53
2022/11/08 00:29:54;;;;;;;;;;;;;;;14.28;69.77;101806.56;4930268;28;102183;-53
2022/11/08 00:32:23;;;;;;;;;;;;;;;14.29;69.71;101802.75;4931466;28;102379;-53
2022/11/08 00:34:49;;;;;;;;;;;;;;;14.27;69.64;101811.22;4921192;28;108039;-53
2022/11/08 00:37:16;;;;;;;;;;;;;;;14.27;69.64;101800.28;4921949;28;102431;-54
2022/11/08 00:39:42;;;;;;;;;;;;;;;14.27;69.52;101799.47;4924376;28;102331;-54
2022/11/08 00:42:09;;;;;;;;;;;;;;;14.27;69.67;101807.66;4922212;28;102293;-53
2022/11/08 00:44:37;;;;;;;;;;;;;;;14.28;69.79;101812.91;4935502;28;103944;-54
2022/11/08 00:47:03;;;;;;;;;;;;;;;14.28;69.88;101795.63;4930063;28;102475;-53
2022/11/08 00:49:29;;;;;;;;;;;;;;;14.27;69.72;101802.19;4935458;28;102221;-53
2022/11/08 00:51:55;;;;;;;;;;;;;;;14.28;69.85;101803.84;4929442;28;102297;-53
2022/11/08 00:54:22;;;;;;;;;;;;;;;14.25;69.79;101802.47;4914880;28;104113;-53
2022/11/08 00:56:48;;;;;;;;;;;;;;;14.27;69.53;101799.47;4921587;28;102326;-53
2022/11/08 00:59:15;;;;;;;;;;;;;;;14.26;70.31;101804.13;4923962;28;102344;-53
2022/11/08 01:01:43;;;;;;;;;;;;;;;14.27;69.72;101804.94;4918221;28;102280;-53
2022/11/08 01:04:10;;;;;;;;;;;;;;;14.26;70.08;101809.59;4930377;28;104136;-53
2022/11/08 01:06:37;;;;;;;;;;;;;;;14.26;69.79;101808.78;4922823;28;102416;-53
2022/11/08 01:09:05;;;;;;;;;;;;;;;14.26;70.03;101804.13;4926236;28;102599;-53
2022/11/08 01:11:32;;;;;;;;;;;;;;;14.27;70.00;101804.94;4925698;28;102365;-53
2022/11/08 01:13:59;;;;;;;;;;;;;;;14.25;69.76;101801.66;4929954;28;103890;-53
2022/11/08 01:16:26;;;;;;;;;;;;;;;14.26;69.83;101808.78;4922479;28;102245;-53
2022/11/08 01:18:55;;;;;;;;;;;;;;;14.26;70.03;101811.50;4916527;28;102373;-53
2022/11/08 01:21:23;;;;;;;;;;;;;;;14.24;70.11;101802.72;4918962;28;102391;-53
2022/11/08 01:23:49;;;;;;;;;;;;;;;14.26;69.79;101797.81;4917074;28;103829;-53
2022/11/08 01:26:15;;;;;;;;;;;;;;;14.25;70.11;101796.19;4930017;28;102410;-53
2022/11/08 01:28:42;;;;;;;;;;;;;;;14.26;70.01;101792.34;4926099;28;102380;-53
2022/11/08 01:31:12;;;;;;;;;;;;;;;14.27;70.07;101783.03;4920126;28;102189;-53
2022/11/08 01:33:38;;;;;;;;;;;;;;;14.24;70.04;101778.91;4918657;28;103819;-53
2022/11/08 01:36:07;;;;;;;;;;;;;;;14.25;70.04;101779.75;4919640;28;102659;-53
2022/11/08 01:38:33;;;;;;;;;;;;;;;14.24;69.68;101778.09;4925278;28;102488;-53
2022/11/08 01:41:00;;;;;;;;;;;;;;;14.24;70.11;101773.44;4934897;28;102591;-53
2022/11/08 01:43:35;;;;;;;;;;;;;;;14.25;70.04;101775.09;4915349;28;104110;-54
2022/11/08 01:46:28;;;;;;;;;;;;;;;14.26;70.05;101781.41;4924629;28;102342;-53
2022/11/08 01:48:57;;;;;;;;;;;;;;;14.24;69.75;101784.38;4915845;28;102433;-53
2022/11/08 01:51:29;;;;;;;;;;;;;;;14.26;69.73;101786.88;4922142;28;102549;-53
2022/11/08 01:53:57;;;;;;;;;;;;;;;14.25;70.09;101774.28;4922259;28;104109;-53
2022/11/08 01:56:23;;;;;;;;;;;;;;;14.25;69.67;101768.81;4924016;28;102425;-53
2022/11/08 01:58:51;;;;;;;;;;;;;;;14.25;69.76;101774.28;4924076;28;102434;-53
2022/11/08 02:01:17;;;;;;;;;;;;;;;14.24;69.80;101778.91;4922671;28;102173;-53
2022/11/08 02:03:44;;;;;;;;;;;;;;;14.24;69.64;101775.34;4919340;28;103964;-53
2022/11/08 02:06:11;;;;;;;;;;;;;;;14.24;70.28;101778.09;4921692;28;102851;-53
2022/11/08 02:08:39;;;;;;;;;;;;;;;14.24;70.06;101783.56;4920554;28;102474;-53
2022/11/08 02:11:07;;;;;;;;;;;;;;;14.23;69.95;101781.94;4927749;28;102615;-54
2022/11/08 02:13:35;;;;;;;;;;;;;;;14.23;69.88;101782.75;4921712;28;104163;-53
2022/11/08 02:16:01;;;;;;;;;;;;;;;14.24;70.06;101778.91;4921336;28;102338;-53
2022/11/08 02:18:29;;;;;;;;;;;;;;;14.24;70.23;101781.66;4921766;28;102759;-53
2022/11/08 02:20:59;;;;;;;;;;;;;;;14.23;70.16;101781.94;4920655;28;102693;-53
2022/11/08 02:23:27;;;;;;;;;;;;;;;14.25;70.10;101785.22;4922028;28;104078;-53
2022/11/08 02:25:55;;;;;;;;;;;;;;;14.24;69.90;101783.56;4919323;28;101971;-53
2022/11/08 02:28:21;;;;;;;;;;;;;;;14.25;69.83;101785.22;4922234;28;102314;-54
2022/11/08 02:30:49;;;;;;;;;;;;;;;14.26;70.02;101789.59;4934306;28;102256;-53
2022/11/08 02:33:16;;;;;;;;;;;;;;;14.25;70.25;101785.22;4917819;28;104169;-53
2022/11/08 02:35:44;;;;;;;;;;;;;;;14.23;69.96;101787.41;4918578;28;102290;-53
2022/11/08 02:38:11;;;;;;;;;;;;;;;14.25;69.82;101796.19;4926239;28;102809;-53
2022/11/08 02:40:46;;;;;;;;;;;;;;;14.25;69.97;101790.72;4922758;28;102240;-53
2022/11/08 02:43:14;;;;;;;;;;;;;;;14.25;70.32;101787.97;4914783;28;103769;-53
2022/11/08 02:45:42;;;;;;;;;;;;;;;14.23;70.04;101790.97;4925394;28;102004;-53
2022/11/08 02:48:08;;;;;;;;;;;;;;;14.24;70.35;101800.00;4919069;28;102508;-53
2022/11/08 02:50:36;;;;;;;;;;;;;;;14.23;69.96;101790.97;4934826;28;102536;-53
2022/11/08 02:53:02;;;;;;;;;;;;;;;14.25;69.81;101794.25;4928620;28;103955;-53
2022/11/08 02:55:29;;;;;;;;;;;;;;;14.24;69.92;101789.03;4916006;28;102679;-53
2022/11/08 02:57:56;;;;;;;;;;;;;;;14.22;70.16;101788.50;4921320;28;102624;-53
2022/11/08 03:00:24;;;;;;;;;;;;;;;14.25;69.98;101793.44;4924212;28;102372;-53
2022/11/08 03:02:51;;;;;;;;;;;;;;;14.24;70.12;101789.03;4914424;28;103876;-53
2022/11/08 03:05:17;;;;;;;;;;;;;;;14.23;69.78;101782.75;4929063;28;102480;-53
2022/11/08 03:07:44;;;;;;;;;;;;;;;14.23;69.84;101792.88;4923388;28;102087;-53
2022/11/08 03:10:10;;;;;;;;;;;;;;;14.22;70.13;101797.53;4925847;28;102415;-53
2022/11/08 03:12:38;;;;;;;;;;;;;;;14.22;69.94;101785.75;4923519;28;103908;-53
2022/11/08 03:15:05;;;;;;;;;;;;;;;14.24;70.12;101794.50;4927758;28;101941;-53
2022/11/08 03:17:33;;;;;;;;;;;;;;;14.23;70.22;101792.88;4928889;28;102823;-53
2022/11/08 03:20:00;;;;;;;;;;;;;;;14.24;69.95;101794.50;4933391;28;102415;-53
2022/11/08 03:22:26;;;;;;;;;;;;;;;14.23;70.25;101776.44;4921603;28;103967;-53
2022/11/08 03:24:52;;;;;;;;;;;;;;;14.24;70.40;101789.03;4919477;28;102362;-53
2022/11/08 03:27:19;;;;;;;;;;;;;;;14.24;70.32;101789.03;4914676;28;102220;-53
2022/11/08 03:29:45;;;;;;;;;;;;;;;14.25;70.13;101788.78;4915246;28;102661;-53
2022/11/08 03:32:12;;;;;;;;;;;;;;;14.24;70.13;101783.56;4923454;28;103883;-53
2022/11/08 03:34:40;;;;;;;;;;;;;;;14.24;69.79;101789.03;4935541;28;102014;-53
2022/11/08 03:37:10;;;;;;;;;;;;;;;14.24;70.17;101787.13;4935585;28;102502;-53
2022/11/08 03:39:36;;;;;;;;;;;;;;;14.24;70.08;101789.03;4927856;28;102083;-53
2022/11/08 03:42:03;;;;;;;;;;;;;;;14.22;70.40;101791.25;4925142;28;103725;-53
2022/11/08 03:44:30;;;;;;;;;;;;;;;14.25;70.39;101779.75;4924706;28;104508;-53
2022/11/08 03:46:57;;;;;;;;;;;;;;;14.24;70.26;101783.56;4932712;28;102272;-53
2022/11/08 03:49:23;;;;;;;;;;;;;;;14.26;70.14;101781.41;4936775;28;102687;-53
2022/11/08 03:51:51;;;;;;;;;;;;;;;14.25;70.15;101774.28;4929492;28;104044;-53
2022/11/08 03:54:17;;;;;;;;;;;;;;;14.25;70.27;101777.03;4924989;28;102085;-53
2022/11/08 03:56:43;;;;;;;;;;;;;;;14.23;70.45;101776.44;4934806;28;102559;-53
2022/11/08 03:59:10;;;;;;;;;;;;;;;14.24;70.27;101783.56;4921222;28;102831;-53
2022/11/08 04:01:36;;;;;;;;;;;;;;;14.23;70.33;101776.44;4916676;28;104078;-53
2022/11/08 04:04:02;;;;;;;;;;;;;;;14.23;70.44;101770.97;4917259;28;102266;-54
2022/11/08 04:06:29;;;;;;;;;;;;;;;14.22;70.38;101767.41;4920268;28;101988;-53
2022/11/08 04:08:57;;;;;;;;;;;;;;;14.24;70.14;101772.63;4924704;28;102660;-53
2022/11/08 04:17:10;;;;;;;;;;;;;;;14.25;69.88;101780.56;4918418;28;102368;-54
2022/11/08 04:22:23;;;;;;;;;;;;;;;14.23;70.03;101776.44;4923447;28;103550;-53
2022/11/08 04:24:53;;;;;;;;;;;;;;;14.21;70.44;101768.53;4921177;28;102184;-53
2022/11/08 04:27:19;;;;;;;;;;;;;;;14.25;70.33;101768.81;4918731;28;102082;-53
2022/11/08 04:29:45;;;;;;;;;;;;;;;14.23;70.25;101765.50;4921677;28;102580;-53
2022/11/08 04:32:12;;;;;;;;;;;;;;;14.24;70.44;101772.63;4924092;28;103979;-53
2022/11/08 04:34:39;;;;;;;;;;;;;;;14.23;70.49;101770.97;4927617;28;102186;-53
2022/11/08 04:37:05;;;;;;;;;;;;;;;14.24;70.28;101778.09;4918129;28;102744;-53
2022/11/08 04:39:32;;;;;;;;;;;;;;;14.24;70.20;101772.63;4928497;28;103690;-53
2022/11/08 04:42:00;;;;;;;;;;;;;;;14.23;70.43;101776.44;4930568;28;103941;-53
2022/11/08 04:44:26;;;;;;;;;;;;;;;14.23;70.50;101770.97;4928130;28;103187;-53
2022/11/08 04:46:53;;;;;;;;;;;;;;;14.23;70.43;101776.44;4931706;28;102071;-53
2022/11/08 04:49:19;;;;;;;;;;;;;;;14.22;70.34;101780.28;4933250;28;102212;-53
2022/11/08 04:51:45;;;;;;;;;;;;;;;14.23;70.48;101782.75;4924341;28;104231;-53
2022/11/08 04:54:13;;;;;;;;;;;;;;;14.21;70.48;101779.47;4925218;28;102342;-53
2022/11/08 04:56:40;;;;;;;;;;;;;;;14.21;70.48;101781.34;4917373;28;102336;-53
2022/11/08 04:59:08;;;;;;;;;;;;;;;14.22;70.51;101789.31;4924642;28;102175;-53
2022/11/08 05:01:35;;;;;;;;;;;;;;;14.23;70.53;101782.75;4921183;28;103891;-53
2022/11/08 05:04:01;;;;;;;;;;;;;;;14.21;70.56;101787.69;4929675;28;102037;-53
2022/11/08 05:06:28;;;;;;;;;;;;;;;14.24;70.20;101789.03;4933035;28;102322;-53
2022/11/08 05:08:55;;;;;;;;;;;;;;;14.23;70.61;101781.94;4925772;28;102234;-53
2022/11/08 05:11:22;;;;;;;;;;;;;;;14.23;70.46;101781.94;4923775;28;103915;-53
2022/11/08 05:13:49;;;;;;;;;;;;;;;14.21;70.63;101795.91;4926316;28;102321;-56
2022/11/08 05:16:18;;;;;;;;;;;;;;;14.22;70.43;101791.25;4927202;28;102086;-53
2022/11/08 05:18:44;;;;;;;;;;;;;;;14.21;70.48;101801.38;4920755;28;102766;-53
2022/11/08 05:23:55;;;;;;;;;;;;;;;14.22;70.59;101813.16;4918930;28;102423;-53
2022/11/08 05:26:22;;;;;;;;;;;;;;;14.23;70.14;101809.31;4928507;28;102355;-56
2022/11/08 05:28:49;;;;;;;;;;;;;;;14.22;70.59;101819.44;4916826;28;102244;-53
2022/11/08 05:31:15;;;;;;;;;;;;;;;14.21;70.26;101827.91;4922240;28;104433;-53
2022/11/08 05:33:43;;;;;;;;;;;;;;;14.21;70.47;101820.53;4934157;28;102297;-53
2022/11/08 05:36:11;;;;;;;;;;;;;;;14.23;70.50;101825.72;4929742;28;102476;-54
2022/11/08 05:38:39;;;;;;;;;;;;;;;14.23;70.49;101831.22;4928767;28;102392;-53
2022/11/08 05:41:07;;;;;;;;;;;;;;;14.21;70.61;101833.38;4917514;28;103780;-53
2022/11/08 05:43:35;;;;;;;;;;;;;;;14.21;70.33;101839.69;4919280;28;102241;-53
2022/11/08 05:46:01;;;;;;;;;;;;;;;14.21;70.49;101841.59;4924687;28;102407;-53
2022/11/08 05:48:27;;;;;;;;;;;;;;;14.21;70.56;101850.66;4932278;28;102556;-53
2022/11/08 05:50:55;;;;;;;;;;;;;;;14.21;70.24;101850.66;4916115;28;104033;-53
2022/11/08 05:53:22;;;;;;;;;;;;;;;14.22;70.40;101851.47;4919175;28;102412;-53
2022/11/08 05:55:48;;;;;;;;;;;;;;;14.22;70.38;101848.75;4925063;28;102480;-53
2022/11/08 05:58:15;;;;;;;;;;;;;;;14.21;70.50;101866.22;4925267;28;104432;-53
2022/11/08 06:00:41;;;;;;;;;;;;;;;14.21;70.07;101866.22;4925953;28;103819;-53
2022/11/08 06:03:07;;;;;;;;;;;;;;;14.21;70.17;101867.09;4920228;28;102588;-53
2022/11/08 06:05:34;;;;;;;;;;;;;;;14.22;70.18;101873.38;4918208;28;102261;-53
2022/11/08 06:08:01;;;;;;;;;;;;;;;14.22;70.35;101867.91;4918858;28;102843;-53
2022/11/08 06:10:28;;;;;;;;;;;;;;;14.23;70.37;101869.53;4921367;28;104093;-53
2022/11/08 06:12:57;;;;;;;;;;;;;;;14.22;70.44;101873.38;4922486;28;102196;-53
2022/11/08 06:15:24;;;;;;;;;;;;;;;14.22;70.58;101862.44;4919167;28;102123;-53
2022/11/08 06:17:51;;;;;;;;;;;;;;;14.21;70.42;101871.72;4916591;28;102673;-53
2022/11/08 06:20:17;;;;;;;;;;;;;;;14.22;70.38;101878.84;4919225;28;104365;-53
2022/11/08 06:22:43;;;;;;;;;;;;;;;14.22;70.28;101879.66;4920025;28;102227;-53
2022/11/08 06:25:11;;;;;;;;;;;;;;;14.22;70.51;101878.84;4920883;28;103514;-53
2022/11/08 06:27:40;;;;;;;;;;;;;;;14.22;70.35;101884.31;4917572;28;102495;-53
2022/11/08 06:30:07;;;;;;;;;;;;;;;14.19;70.31;101875.53;4924158;28;103652;-53
2022/11/08 06:32:33;;;;;;;;;;;;;;;14.22;70.28;101879.66;4931252;28;101972;-53
2022/11/08 06:34:59;;;;;;;;;;;;;;;14.22;70.35;101884.31;4926663;28;102059;-53
2022/11/08 06:37:26;;;;;;;;;;;;;;;14.21;70.60;101877.19;4920583;28;102602;-53
2022/11/08 06:39:53;;;;;;;;;;;;;;;14.21;70.59;101883.50;4923214;28;103902;-54
2022/11/08 06:42:21;;;;;;;;;;;;;;;14.22;70.43;101878.84;4916467;28;102215;-53
2022/11/08 06:44:47;;;;;;;;;;;;;;;14.21;70.37;101877.19;4918525;28;102039;-53
2022/11/08 06:47:13;;;;;;;;;;;;;;;14.18;70.27;101879.38;4924431;28;102379;-53
2022/11/08 06:49:39;;;;;;;;;;;;;;;14.19;70.61;101878.28;4916663;28;103829;-53
2022/11/08 06:52:06;;;;;;;;;;;;;;;14.20;70.17;101881.84;4925343;28;102401;-53
2022/11/08 06:54:34;;;;;;;;;;;;;;;14.21;70.30;101888.13;4919613;28;102271;-53
2022/11/08 06:57:01;;;;;;;;;;;;;;;14.20;70.47;101881.84;4925396;28;104887;-53
2022/11/08 06:59:28;;;;;;;;;;;;;;;14.21;70.31;101883.50;4923390;28;103907;-53
2022/11/08 07:01:55;;;;;;;;;;;;;;;14.21;70.48;101893.63;4924574;28;102120;-53
2022/11/08 07:04:21;;;;;;;;;;;;;;;14.21;70.40;101885.41;4924732;28;104761;-53
2022/11/08 07:06:47;;;;;;;;;;;;;;;14.19;70.18;101875.53;4924594;28;102235;-53
2022/11/08 07:09:14;;;;;;;;;;;;;;;14.22;70.58;101878.84;4926068;28;104046;-53
2022/11/08 07:11:43;;;;;;;;;;;;;;;14.19;70.23;101874.72;4925199;28;102972;-53
2022/11/08 07:14:09;;;;;;;;;;;;;;;14.19;70.24;101870.06;4925300;28;102131;-54
2022/11/08 07:16:38;;;;;;;;;;;;;;;14.20;70.33;101879.09;4926715;28;102453;-53
2022/11/08 07:19:05;;;;;;;;;;;;;;;14.19;70.39;101882.94;4920303;28;103916;-53
2022/11/08 07:21:32;;;;;;;;;;;;;;;14.21;70.34;101888.13;4921008;28;102602;-53
2022/11/08 07:23:58;;;;;;;;;;;;;;;14.22;70.29;101884.31;4921861;28;102195;-53
2022/11/08 07:26:24;;;;;;;;;;;;;;;14.20;70.50;101887.31;4932233;28;102391;-53
2022/11/08 07:28:52;;;;;;;;;;;;;;;14.18;70.75;101890.34;4929614;28;104071;-53
2022/11/08 07:31:18;;;;;;;;;;;;;;;14.21;70.37;101882.66;4926517;28;102124;-53
2022/11/08 07:33:46;;;;;;;;;;;;;;;14.21;70.40;101894.47;4927940;28;102289;-53
2022/11/08 07:36:12;;;;;;;;;;;;;;;14.18;70.83;101884.88;4925324;28;102181;-53
2022/11/08 07:38:38;;;;;;;;;;;;;;;14.19;70.53;101883.75;4926208;28;104025;-53
2022/11/08 07:41:05;;;;;;;;;;;;;;;14.19;70.79;101886.50;4918872;28;102142;-53
2022/11/08 07:43:31;;;;;;;;;;;;;;;14.22;70.49;101884.31;4922628;28;102144;-53
2022/11/08 07:45:58;;;;;;;;;;;;;;;14.21;70.62;101882.66;4923198;28;102615;-53
2022/11/08 07:48:25;;;;;;;;;;;;;;;14.21;70.31;101885.41;4915436;28;103852;-53
2022/11/08 07:50:53;;;;;;;;;;;;;;;14.22;70.58;101884.31;4929736;28;102126;-53
2022/11/08 07:53:20;;;;;;;;;;;;;;;14.22;70.67;101885.16;4923217;28;102290;-53
2022/11/08 07:55:49;;;;;;;;;;;;;;;14.19;70.26;101883.75;4923861;28;102136;-53
2022/11/08 07:58:15;;;;;;;;;;;;;;;14.21;70.44;101878.03;4920169;28;103918;-53
2022/11/08 08:00:42;;;;;;;;;;;;;;;14.20;70.36;101884.56;4926274;28;102131;-53
2022/11/08 08:03:10;;;;;;;;;;;;;;;14.20;70.31;101881.84;4926311;28;103903;-53
2022/11/08 08:05:37;;;;;;;;;;;;;;;14.18;70.71;101876.66;4917449;28;102128;-53
2022/11/08 10:32:18;;;;;;;111.72;104.75;;;;;;;14.27;70.08;101816.69;5032868;27;102161;-55
2022/11/08 10:34:53;;;;;;;116.60;109.63;;;;;;;14.30;69.90;101809.88;5008080;28;102482;-55
2022/11/08 10:37:21;;;;;;;100.25;94.05;;;;;;;14.31;70.06;101801.38;4993386;28;103939;-55
2022/11/08 10:39:54;;;;;;;108.10;101.50;;;;;;;14.32;70.02;101813.19;5004075;28;102444;-55
2022/11/08 10:42:32;;;;;;;107.50;101.20;;;;;;;14.33;70.10;101809.34;4979524;28;102650;-55
2022/11/08 10:44:59;;;;;;;113.07;106.40;;;;;;;14.32;70.27;101799.50;4986061;28;102580;-54
2022/11/08 10:47:30;;;;;;;108.65;102.30;;;;;;;14.32;70.26;101803.03;5024897;27;104054;-54
2022/11/08 10:49:56;;;;;;;115.95;109.25;;;;;;;14.33;70.27;101803.88;5009532;28;102253;-55
2022/11/08 10:52:31;;;;;;;113.22;106.75;;;;;;;14.32;70.53;101802.22;4991078;28;102201;-54
2022/11/08 10:54:58;;;;;;;107.20;100.80;;;;;;;14.32;70.42;101807.69;4985758;28;102308;-54
2022/11/08 10:57:36;;;;;;;106.47;100.20;;;;;;;14.31;70.48;101801.38;4992539;28;103137;-54
2022/11/08 11:00:24;;;;;;;109.90;103.60;;;;;;;14.32;70.53;101799.50;4992277;28;102655;-54
2022/11/08 11:02:54;;;;;;;108.50;102.32;;;;;;;14.30;70.52;101793.44;4990653;28;102003;-54
2022/11/08 11:05:28;;;;;;;115.15;108.35;;;;;;;14.30;70.54;101788.78;5004266;28;102743;-54
2022/11/08 11:08:11;;;;;;;105.45;99.40;;;;;;;14.34;70.54;101786.34;4997938;28;104075;-54
2022/11/08 11:10:39;;;;;;;104.05;97.97;;;;;;;14.32;70.61;101783.06;4997800;28;102202;-54
2022/11/08 11:13:10;;;;;;;102.00;95.80;;;;;;;14.32;70.73;101785.81;4992816;28;102140;-54
2022/11/08 11:15:43;;;;;;;105.38;99.32;;;;;;;14.31;70.61;101784.13;4996239;28;102729;-54
2022/11/08 11:18:34;;;;;;;108.60;102.40;;;;;;;14.31;70.67;101773.19;4984290;28;104012;-54
2022/11/08 11:21:08;;;;;;;105.07;99.03;;;;;;;14.32;70.93;101777.59;4990398;28;102359;-54
2022/11/08 11:23:38;;;;;;;106.38;100.25;;;;;;;14.33;70.50;101779.22;5009977;28;101958;-54
2022/11/08 11:26:06;;;;;;;109.18;102.88;;;;;;;14.33;70.42;101781.97;5003175;28;102461;-55
2022/11/08 11:28:37;;;;;;;107.70;101.63;;;;;;;14.33;70.47;101776.47;4989360;28;104459;-54
2022/11/08 11:31:15;;;;;;;97.35;91.68;;;;;;;14.32;70.53;101772.91;4974105;28;102791;-54
2022/11/08 11:33:47;;;;;;;99.10;93.22;;;;;;;14.33;70.49;101773.75;4981844;28;102222;-54
2022/11/08 11:36:19;;;;;;;106.70;100.32;;;;;;;14.33;70.24;101781.97;4976651;28;102610;-54
2022/11/08 11:38:51;;;;;;;98.88;93.32;;;;;;;14.32;70.84;101774.84;4960417;28;103735;-55
2022/11/08 11:41:32;;;;;;;101.15;95.30;;;;;;;14.33;70.47;101774.56;4972211;28;102539;-54
2022/11/08 11:44:11;;;;;;;102.78;97.00;;;;;;;14.33;70.89;101776.47;4980837;28;102220;-54
2022/11/08 11:46:49;;;;;;;106.57;100.43;;;;;;;14.33;70.67;101781.97;4976665;28;102335;-54
2022/11/08 11:49:19;;;;;;;103.68;97.70;;;;;;;14.34;70.59;101783.59;4966001;28;104132;-54
2022/11/08 11:51:50;;;;;;;109.38;103.15;;;;;;;14.33;70.66;101779.22;4980063;28;102069;-55
2022/11/08 11:54:16;;;;;;;97.03;91.45;;;;;;;14.32;70.83;101777.59;4982984;28;102099;-54
2022/11/08 11:56:55;;;;;;;104.47;98.40;;;;;;;14.31;70.89;101778.66;4979317;28;103568;-54
2022/11/08 11:59:54;;;;;;;107.47;101.25;;;;;;;14.30;70.96;101783.31;4974909;28;103833;-55
2022/11/08 12:02:58;;;;;;;105.25;99.35;;;;;;;14.32;70.84;101780.31;4977099;28;102112;-54
2022/11/08 12:05:42;;;;;;;110.78;104.63;;;;;;;14.32;70.93;101770.19;4969783;28;102505;-54
2022/11/08 12:29:42;;;;;;;130.05;122.93;;;;;;;14.26;70.45;101793.16;4969963;28;102299;-53
2022/11/08 12:32:30;;;;;;;89.53;84.53;;;;;;;14.29;70.43;101786.34;4936219;28;102619;-53
2022/11/08 12:35:14;;;;;;;86.80;81.65;;;;;;;14.29;70.41;101791.81;4926552;28;104369;-53
2022/11/08 12:37:55;;;;;;;89.72;84.63;;;;;;;14.30;70.36;101793.44;4930247;28;102040;-53
2022/11/08 12:40:30;;;;;;;98.32;92.40;;;;;;;14.31;70.48;101790.41;4948360;28;102727;-53
2022/11/08 12:43:05;;;;;;;91.53;86.05;;;;;;;14.30;70.39;101790.72;4951821;28;102092;-53
2022/11/08 12:45:55;;;;;;;93.75;88.32;;;;;;;14.31;70.48;101790.41;4950598;28;103967;-53
2022/11/08 12:48:47;;;;;;;98.45;92.65;;;;;;;14.32;70.63;101785.81;4945725;28;102979;-53
2022/11/08 12:51:22;;;;;;;97.35;91.43;;;;;;;14.31;70.61;101789.59;4949219;28;101973;-53
2022/11/08 12:54:08;;;;;;;103.78;97.93;;;;;;;14.31;70.63;101789.59;4952072;28;102543;-53
2022/11/08 12:56:38;;;;;;;107.07;100.80;;;;;;;14.30;70.66;101785.22;4947994;28;104486;-53
2022/11/08 12:59:17;;;;;;;104.93;99.10;;;;;;;14.30;71.04;101777.84;4949544;28;102582;-53
2022/11/08 13:01:45;;;;;;;109.28;103.05;;;;;;;14.29;70.74;101775.38;4949904;28;102414;-53
2022/11/08 13:04:49;;;;;;;102.10;96.35;;;;;;;14.28;70.81;101773.72;4949409;28;102858;-53
2022/11/08 13:07:24;;;;;;;105.65;99.60;;;;;;;14.31;70.93;101778.66;4889715;28;105407;-53
2022/11/08 14:48:48;;;;;;;114.35;107.75;;;;;;;14.20;71.43;101818.88;5040469;27;102275;-54
2022/11/08 14:51:15;;;;;;;98.53;92.65;;;;;;;14.21;71.44;101827.91;4989569;28;102261;-54
2022/11/08 14:53:45;;;;;;;103.47;97.55;;;;;;;14.24;71.23;101830.09;4989167;28;103935;-54
2022/11/08 14:56:18;;;;;;;105.47;99.22;;;;;;;14.21;71.36;101827.91;4989423;28;102490;-54
2022/11/08 14:58:46;;;;;;;99.60;93.72;;;;;;;14.23;71.36;101828.47;4971658;28;102012;-53
2022/11/08 15:01:19;;;;;;;111.25;104.93;;;;;;;14.24;71.22;101839.13;4973857;28;102327;-53
2022/11/08 15:16:45;;;;;;;124.40;117.30;;;;;;;14.25;71.16;101842.72;5108204;27;102251;-54
2022/11/08 15:19:28;;;;;;;86.03;80.72;;;;;;;14.23;71.29;101844.91;5070277;27;102510;-54
2022/11/08 15:21:56;;;;;;;97.35;91.65;;;;;;;14.23;71.34;101848.47;5062068;27;103823;-52
2022/11/08 15:24:31;;;;;;;91.88;86.40;;;;;;;14.23;71.14;101850.38;5057161;27;103032;-54
2022/11/08 15:27:03;;;;;;;91.05;84.93;;;;;;;14.30;69.88;101849.03;5039214;27;102166;-54
2022/11/08 15:29:47;;;;;;;97.90;91.90;;;;;;;14.29;70.01;101860.25;5054170;27;102730;-54
2022/11/08 15:32:17;;;;;;;103.50;96.80;;;;;;;14.30;69.89;101850.94;5046967;27;104185;-54
2022/11/08 15:34:45;;;;;;;98.68;92.43;;;;;;;14.34;69.63;101849.31;5046610;27;102233;-54
2022/11/08 15:37:19;;;;;;;101.85;95.05;;;;;;;14.34;69.43;101849.31;5036662;27;102116;-54
2022/11/08 15:39:46;;;;;;;91.93;85.75;;;;;;;14.35;69.60;101856.44;5052307;27;102634;-54
2022/11/08 15:42:14;;;;;;;103.82;96.97;;;;;;;14.35;69.64;101857.28;5052863;27;103183;-53
2022/11/08 15:44:56;;;;;;;102.57;95.73;;;;;;;14.34;69.95;101868.47;5070675;27;103330;-53
2022/11/08 15:47:45;;;;;;;96.93;90.60;;;;;;;14.35;69.54;101864.66;5061959;27;102171;-54
2022/11/08 15:50:15;;;;;;;97.27;91.03;;;;;;;14.36;69.48;101858.91;5069795;27;102305;-54
2022/11/08 15:52:44;;;;;;;99.43;92.88;;;;;;;14.34;69.77;101868.47;5039671;27;108139;-54
2022/11/08 15:55:13;;;;;;;94.60;88.25;;;;;;;14.34;69.62;101871.22;5044300;27;102016;-54
2022/11/08 15:57:41;;;;;;;102.95;96.53;;;;;;;14.33;69.50;101864.09;5041534;27;102460;-54
2022/11/08 16:00:14;;;;;;;97.93;91.72;;;;;;;14.33;69.83;101869.59;5037744;27;102150;-54
2022/11/08 16:02:41;;;;;;;102.60;95.95;;;;;;;14.33;69.63;101881.34;5042609;27;103848;-54
2022/11/08 16:05:15;;;;;;;98.43;92.25;;;;;;;14.33;69.64;101870.41;5043343;27;102255;-54
2022/11/08 16:07:42;;;;;;;100.10;93.85;;;;;;;14.35;69.57;101881.06;5032988;27;102310;-53
2022/11/08 16:10:10;;;;;;;99.07;92.68;;;;;;;14.33;69.50;101878.63;5039949;27;102053;-54
2022/11/08 16:12:38;;;;;;;94.68;88.50;;;;;;;14.34;69.73;101879.44;5039415;27;103910;-54
2022/11/08 16:15:09;;;;;;;98.07;91.90;;;;;;;14.33;69.76;101881.34;5042147;27;102093;-54
2022/11/08 16:17:35;;;;;;;99.03;92.85;;;;;;;14.32;69.63;101878.91;5025759;27;101979;-54
2022/11/08 16:20:21;;;;;;;101.50;95.28;;;;;;;14.31;69.86;101878.06;5026448;28;102113;-54
2022/11/08 16:22:47;;;;;;;101.40;95.20;;;;;;;14.32;69.69;101887.13;5027609;27;103994;-54
2022/11/08 16:25:16;;;;;;;106.45;99.65;;;;;;;14.33;69.39;101888.75;5030166;27;102565;-53
2022/11/08 16:27:43;;;;;;;102.97;96.43;;;;;;;14.33;69.67;101881.34;5029600;27;102268;-53
2022/11/08 16:30:14;;;;;;;100.30;94.10;;;;;;;14.31;69.72;101882.72;5021846;28;102557;-53
2022/11/08 16:32:42;;;;;;;103.72;97.43;;;;;;;14.31;69.68;101879.97;5032997;27;103924;-54
2022/11/08 16:35:12;;;;;;;101.22;94.90;;;;;;;14.31;70.26;101882.72;5024004;28;101977;-57
2022/11/08 16:37:40;;;;;;;93.25;87.40;;;;;;;14.33;69.79;101877.81;5034481;27;101997;-54
2022/11/08 16:40:15;;;;;;;103.55;97.38;;;;;;;14.31;69.79;101891.75;5037957;28;102347;-54
2022/11/08 16:42:42;;;;;;;103.38;97.03;;;;;;;14.32;69.96;101889.84;5030332;27;104095;-54
2022/11/08 16:45:09;;;;;;;107.07;100.78;;;;;;;14.31;70.10;101877.22;5019441;28;102044;-54
2022/11/08 16:47:36;;;;;;;99.50;93.13;;;;;;;14.34;70.01;101876.69;5033205;27;102388;-54
2022/11/08 16:50:03;;;;;;;100.55;94.63;;;;;;;14.32;70.28;101882.47;5031665;28;102722;-54
2022/11/08 16:52:30;;;;;;;103.22;96.80;;;;;;;14.33;70.13;101891.50;5038433;27;104080;-54
2022/11/08 16:54:58;;;;;;;104.40;98.15;;;;;;;14.31;70.16;101894.47;5032318;27;102201;-54
2022/11/08 16:57:25;;;;;;;101.70;95.55;;;;;;;14.32;70.68;101890.69;5035827;27;102144;-53
2022/11/08 16:59:51;;;;;;;101.95;95.85;;;;;;;14.32;70.61;101889.84;5025818;27;102399;-53